sensor_id;sensor_type;location;lat;lon;timestamp;P1;durP1;ratioP1;P2;durP2;ratioP2
11921;SDS011;6021;51.182;3.160;2023-06-10T00:00:01;6.60;;;6.10;;
11921;SDS011;6021;51.182;3.160;2023-06-10T00:02:31;7.67;;;6.97;;
11921;SDS011;6021;51.182;3.160;2023-06-10T00:05:00;7.63;;;6.90;;
11921;SDS011;6021;51.182;3.160;2023-06-10T00:07:28;7.60;;;6.80;;
11921;SDS011;6021;51.182;3.160;2023-06-10T00:09:57;7.73;;;6.90;;
11921;SDS011;6021;51.182;3.160;2023-06-10T00:12:26;7.10;;;6.43;;
11921;SDS011;6021;51.182;3.160;2023-06-10T00:14:55;7.57;;;6.93;;
11921;SDS011;6021;51.182;3.160;2023-06-10T00:17:23;7.70;;;7.10;;
11921;SDS011;6021;51.182;3.160;2023-06-10T00:19:52;7.43;;;6.73;;
11921;SDS011;6021;51.182;3.160;2023-06-10T00:22:20;7.73;;;7.10;;
11921;SDS011;6021;51.182;3.160;2023-06-10T00:24:48;7.90;;;7.17;;
11921;SDS011;6021;51.182;3.160;2023-06-10T00:27:17;8.17;;;7.07;;
11921;SDS011;6021;51.182;3.160;2023-06-10T00:29:45;7.80;;;7.00;;
11921;SDS011;6021;51.182;3.160;2023-06-10T00:32:14;7.90;;;7.20;;
11921;SDS011;6021;51.182;3.160;2023-06-10T00:34:42;7.87;;;7.17;;
11921;SDS011;6021;51.182;3.160;2023-06-10T00:37:10;8.03;;;7.33;;
11921;SDS011;6021;51.182;3.160;2023-06-10T00:39:39;8.27;;;7.53;;
11921;SDS011;6021;51.182;3.160;2023-06-10T00:42:07;8.57;;;7.67;;
11921;SDS011;6021;51.182;3.160;2023-06-10T00:44:37;8.40;;;7.60;;
11921;SDS011;6021;51.182;3.160;2023-06-10T00:47:05;8.17;;;7.47;;
11921;SDS011;6021;51.182;3.160;2023-06-10T00:49:34;8.10;;;7.47;;
11921;SDS011;6021;51.182;3.160;2023-06-10T00:52:03;8.53;;;7.50;;
11921;SDS011;6021;51.182;3.160;2023-06-10T00:54:34;9.60;;;8.40;;
11921;SDS011;6021;51.182;3.160;2023-06-10T00:57:03;8.27;;;7.57;;
11921;SDS011;6021;51.182;3.160;2023-06-10T00:59:32;8.13;;;7.53;;
11921;SDS011;6021;51.182;3.160;2023-06-10T01:02:03;8.57;;;7.87;;
11921;SDS011;6021;51.182;3.160;2023-06-10T01:04:31;8.17;;;7.47;;
11921;SDS011;6021;51.182;3.160;2023-06-10T01:09:46;9.30;;;8.40;;
11921;SDS011;6021;51.182;3.160;2023-06-10T01:12:27;8.80;;;8.10;;
11921;SDS011;6021;51.182;3.160;2023-06-10T01:15:08;8.80;;;7.90;;
11921;SDS011;6021;51.182;3.160;2023-06-10T01:17:52;8.10;;;7.50;;
11921;SDS011;6021;51.182;3.160;2023-06-10T01:20:25;8.93;;;8.13;;
11921;SDS011;6021;51.182;3.160;2023-06-10T01:22:54;9.50;;;8.70;;
11921;SDS011;6021;51.182;3.160;2023-06-10T01:25:24;10.10;;;9.10;;
11921;SDS011;6021;51.182;3.160;2023-06-10T01:28:07;9.47;;;8.67;;
11921;SDS011;6021;51.182;3.160;2023-06-10T01:30:55;9.57;;;8.77;;
11921;SDS011;6021;51.182;3.160;2023-06-10T01:33:22;9.20;;;8.47;;
11921;SDS011;6021;51.182;3.160;2023-06-10T01:35:47;9.00;;;8.20;;
11921;SDS011;6021;51.182;3.160;2023-06-10T01:38:17;8.33;;;7.70;;
11921;SDS011;6021;51.182;3.160;2023-06-10T01:40:48;8.50;;;7.83;;
11921;SDS011;6021;51.182;3.160;2023-06-10T01:43:19;9.00;;;8.30;;
11921;SDS011;6021;51.182;3.160;2023-06-10T01:45:48;9.93;;;8.50;;
11921;SDS011;6021;51.182;3.160;2023-06-10T01:48:16;9.53;;;8.53;;
11921;SDS011;6021;51.182;3.160;2023-06-10T01:50:46;8.93;;;8.23;;
11921;SDS011;6021;51.182;3.160;2023-06-10T01:53:14;9.30;;;8.43;;
11921;SDS011;6021;51.182;3.160;2023-06-10T01:55:42;9.20;;;8.30;;
11921;SDS011;6021;51.182;3.160;2023-06-10T01:58:11;9.20;;;8.50;;
11921;SDS011;6021;51.182;3.160;2023-06-10T02:00:39;8.20;;;7.50;;
11921;SDS011;6021;51.182;3.160;2023-06-10T02:03:07;9.10;;;8.20;;
11921;SDS011;6021;51.182;3.160;2023-06-10T02:05:36;9.17;;;8.37;;
11921;SDS011;6021;51.182;3.160;2023-06-10T02:08:04;8.90;;;8.10;;
11921;SDS011;6021;51.182;3.160;2023-06-10T02:10:33;9.00;;;8.10;;
11921;SDS011;6021;51.182;3.160;2023-06-10T02:13:01;9.90;;;9.10;;
11921;SDS011;6021;51.182;3.160;2023-06-10T02:15:30;10.03;;;9.10;;
11921;SDS011;6021;51.182;3.160;2023-06-10T02:17:59;9.50;;;8.70;;
11921;SDS011;6021;51.182;3.160;2023-06-10T02:20:27;9.47;;;8.60;;
11921;SDS011;6021;51.182;3.160;2023-06-10T02:22:55;10.40;;;9.50;;
11921;SDS011;6021;51.182;3.160;2023-06-10T02:25:25;10.10;;;9.27;;
11921;SDS011;6021;51.182;3.160;2023-06-10T02:27:54;10.30;;;9.30;;
11921;SDS011;6021;51.182;3.160;2023-06-10T02:30:22;9.73;;;8.90;;
11921;SDS011;6021;51.182;3.160;2023-06-10T02:32:51;10.17;;;9.07;;
11921;SDS011;6021;51.182;3.160;2023-06-10T02:35:19;11.70;;;9.40;;
11921;SDS011;6021;51.182;3.160;2023-06-10T02:37:49;9.80;;;8.97;;
11921;SDS011;6021;51.182;3.160;2023-06-10T02:40:17;9.80;;;8.90;;
11921;SDS011;6021;51.182;3.160;2023-06-10T02:42:45;9.50;;;8.67;;
11921;SDS011;6021;51.182;3.160;2023-06-10T02:45:14;9.70;;;8.80;;
11921;SDS011;6021;51.182;3.160;2023-06-10T02:47:43;10.23;;;9.23;;
11921;SDS011;6021;51.182;3.160;2023-06-10T02:50:11;10.50;;;9.50;;
11921;SDS011;6021;51.182;3.160;2023-06-10T02:52:40;9.77;;;8.87;;
11921;SDS011;6021;51.182;3.160;2023-06-10T02:55:08;10.33;;;9.30;;
11921;SDS011;6021;51.182;3.160;2023-06-10T02:57:37;9.80;;;8.97;;
11921;SDS011;6021;51.182;3.160;2023-06-10T03:00:05;10.20;;;9.20;;
11921;SDS011;6021;51.182;3.160;2023-06-10T03:02:37;9.83;;;8.50;;
11921;SDS011;6021;51.182;3.160;2023-06-10T03:05:06;11.23;;;9.10;;
11921;SDS011;6021;51.182;3.160;2023-06-10T03:07:39;9.87;;;8.87;;
11921;SDS011;6021;51.182;3.160;2023-06-10T03:10:08;10.00;;;9.00;;
11921;SDS011;6021;51.182;3.160;2023-06-10T03:12:36;10.47;;;9.47;;
11921;SDS011;6021;51.182;3.160;2023-06-10T03:15:05;10.00;;;9.00;;
11921;SDS011;6021;51.182;3.160;2023-06-10T03:17:34;10.27;;;9.23;;
11921;SDS011;6021;51.182;3.160;2023-06-10T03:20:02;8.43;;;7.73;;
11921;SDS011;6021;51.182;3.160;2023-06-10T03:22:36;9.73;;;8.93;;
11921;SDS011;6021;51.182;3.160;2023-06-10T03:25:06;10.97;;;9.77;;
11921;SDS011;6021;51.182;3.160;2023-06-10T03:27:36;11.40;;;10.23;;
11921;SDS011;6021;51.182;3.160;2023-06-10T03:30:05;9.53;;;8.57;;
11921;SDS011;6021;51.182;3.160;2023-06-10T03:32:35;10.53;;;9.53;;
11921;SDS011;6021;51.182;3.160;2023-06-10T03:35:04;10.97;;;9.30;;
11921;SDS011;6021;51.182;3.160;2023-06-10T03:37:33;9.77;;;8.83;;
11921;SDS011;6021;51.182;3.160;2023-06-10T03:40:01;10.03;;;9.07;;
11921;SDS011;6021;51.182;3.160;2023-06-10T03:42:30;10.97;;;9.47;;
11921;SDS011;6021;51.182;3.160;2023-06-10T03:44:58;11.50;;;9.93;;
11921;SDS011;6021;51.182;3.160;2023-06-10T03:47:32;11.17;;;10.27;;
11921;SDS011;6021;51.182;3.160;2023-06-10T03:49:59;10.37;;;9.47;;
11921;SDS011;6021;51.182;3.160;2023-06-10T03:52:27;10.70;;;9.70;;
11921;SDS011;6021;51.182;3.160;2023-06-10T03:54:56;11.00;;;10.10;;
11921;SDS011;6021;51.182;3.160;2023-06-10T03:57:24;10.97;;;9.97;;
11921;SDS011;6021;51.182;3.160;2023-06-10T03:59:53;10.03;;;9.17;;
11921;SDS011;6021;51.182;3.160;2023-06-10T04:02:22;10.50;;;9.53;;
11921;SDS011;6021;51.182;3.160;2023-06-10T04:04:51;10.20;;;9.40;;
11921;SDS011;6021;51.182;3.160;2023-06-10T04:07:19;10.27;;;9.43;;
11921;SDS011;6021;51.182;3.160;2023-06-10T04:09:48;11.43;;;10.43;;
11921;SDS011;6021;51.182;3.160;2023-06-10T04:12:17;10.67;;;9.80;;
11921;SDS011;6021;51.182;3.160;2023-06-10T04:14:45;10.43;;;9.43;;
11921;SDS011;6021;51.182;3.160;2023-06-10T04:17:13;9.90;;;9.10;;
11921;SDS011;6021;51.182;3.160;2023-06-10T04:19:42;11.17;;;10.03;;
11921;SDS011;6021;51.182;3.160;2023-06-10T04:22:11;10.83;;;9.83;;
11921;SDS011;6021;51.182;3.160;2023-06-10T04:24:39;11.90;;;10.70;;
11921;SDS011;6021;51.182;3.160;2023-06-10T04:27:08;10.57;;;9.57;;
11921;SDS011;6021;51.182;3.160;2023-06-10T04:29:36;11.60;;;10.60;;
11921;SDS011;6021;51.182;3.160;2023-06-10T04:32:05;9.70;;;8.90;;
11921;SDS011;6021;51.182;3.160;2023-06-10T04:34:34;13.27;;;10.73;;
11921;SDS011;6021;51.182;3.160;2023-06-10T04:37:02;11.47;;;10.47;;
11921;SDS011;6021;51.182;3.160;2023-06-10T04:39:31;10.00;;;9.20;;
11921;SDS011;6021;51.182;3.160;2023-06-10T04:42:00;11.33;;;10.23;;
11921;SDS011;6021;51.182;3.160;2023-06-10T04:44:28;10.03;;;9.23;;
11921;SDS011;6021;51.182;3.160;2023-06-10T04:46:56;11.27;;;10.37;;
11921;SDS011;6021;51.182;3.160;2023-06-10T04:49:25;11.00;;;9.93;;
11921;SDS011;6021;51.182;3.160;2023-06-10T04:51:53;10.10;;;9.10;;
11921;SDS011;6021;51.182;3.160;2023-06-10T04:54:22;11.17;;;10.17;;
11921;SDS011;6021;51.182;3.160;2023-06-10T04:56:50;11.23;;;10.27;;
11921;SDS011;6021;51.182;3.160;2023-06-10T04:59:18;10.77;;;9.73;;
11921;SDS011;6021;51.182;3.160;2023-06-10T05:01:47;11.93;;;10.60;;
11921;SDS011;6021;51.182;3.160;2023-06-10T05:04:18;11.93;;;10.50;;
11921;SDS011;6021;51.182;3.160;2023-06-10T05:06:46;11.67;;;10.23;;
11921;SDS011;6021;51.182;3.160;2023-06-10T05:09:14;11.80;;;10.80;;
11921;SDS011;6021;51.182;3.160;2023-06-10T05:11:44;13.37;;;10.60;;
11921;SDS011;6021;51.182;3.160;2023-06-10T05:14:12;12.27;;;10.40;;
11921;SDS011;6021;51.182;3.160;2023-06-10T05:16:43;10.70;;;9.57;;
11921;SDS011;6021;51.182;3.160;2023-06-10T05:19:11;11.93;;;10.67;;
11921;SDS011;6021;51.182;3.160;2023-06-10T05:21:39;11.03;;;10.13;;
11921;SDS011;6021;51.182;3.160;2023-06-10T05:24:08;12.00;;;10.80;;
11921;SDS011;6021;51.182;3.160;2023-06-10T05:26:36;11.30;;;10.30;;
11921;SDS011;6021;51.182;3.160;2023-06-10T05:29:05;11.50;;;10.50;;
11921;SDS011;6021;51.182;3.160;2023-06-10T05:31:38;12.87;;;11.47;;
11921;SDS011;6021;51.182;3.160;2023-06-10T05:34:07;11.83;;;10.70;;
11921;SDS011;6021;51.182;3.160;2023-06-10T05:36:35;13.80;;;10.80;;
11921;SDS011;6021;51.182;3.160;2023-06-10T05:39:07;12.30;;;11.03;;
11921;SDS011;6021;51.182;3.160;2023-06-10T05:41:38;12.23;;;11.03;;
11921;SDS011;6021;51.182;3.160;2023-06-10T05:44:07;12.43;;;11.23;;
11921;SDS011;6021;51.182;3.160;2023-06-10T05:46:35;13.30;;;11.27;;
11921;SDS011;6021;51.182;3.160;2023-06-10T05:49:04;12.23;;;11.10;;
11921;SDS011;6021;51.182;3.160;2023-06-10T05:51:32;12.67;;;11.47;;
11921;SDS011;6021;51.182;3.160;2023-06-10T05:54:01;12.27;;;11.07;;
11921;SDS011;6021;51.182;3.160;2023-06-10T05:56:29;11.23;;;10.13;;
11921;SDS011;6021;51.182;3.160;2023-06-10T05:58:58;12.77;;;11.13;;
11921;SDS011;6021;51.182;3.160;2023-06-10T06:01:26;12.47;;;11.27;;
11921;SDS011;6021;51.182;3.160;2023-06-10T06:03:54;11.90;;;10.70;;
11921;SDS011;6021;51.182;3.160;2023-06-10T06:06:23;12.37;;;11.17;;
11921;SDS011;6021;51.182;3.160;2023-06-10T06:08:51;10.70;;;9.70;;
11921;SDS011;6021;51.182;3.160;2023-06-10T06:11:20;12.60;;;11.40;;
11921;SDS011;6021;51.182;3.160;2023-06-10T06:13:48;12.13;;;10.93;;
11921;SDS011;6021;51.182;3.160;2023-06-10T06:16:17;11.60;;;10.40;;
11921;SDS011;6021;51.182;3.160;2023-06-10T06:18:45;12.17;;;11.07;;
11921;SDS011;6021;51.182;3.160;2023-06-10T06:21:13;11.47;;;10.37;;
11921;SDS011;6021;51.182;3.160;2023-06-10T06:23:42;13.13;;;11.67;;
11921;SDS011;6021;51.182;3.160;2023-06-10T06:26:10;13.93;;;11.70;;
11921;SDS011;6021;51.182;3.160;2023-06-10T06:28:39;11.27;;;10.17;;
11921;SDS011;6021;51.182;3.160;2023-06-10T06:31:07;11.07;;;9.97;;
11921;SDS011;6021;51.182;3.160;2023-06-10T06:33:35;11.97;;;10.20;;
11921;SDS011;6021;51.182;3.160;2023-06-10T06:36:04;11.27;;;10.10;;
11921;SDS011;6021;51.182;3.160;2023-06-10T06:38:32;13.37;;;10.80;;
11921;SDS011;6021;51.182;3.160;2023-06-10T06:41:01;11.97;;;10.77;;
11921;SDS011;6021;51.182;3.160;2023-06-10T06:43:31;11.17;;;10.07;;
11921;SDS011;6021;51.182;3.160;2023-06-10T06:45:59;10.87;;;9.73;;
11921;SDS011;6021;51.182;3.160;2023-06-10T06:48:28;10.73;;;9.63;;
11921;SDS011;6021;51.182;3.160;2023-06-10T06:50:56;11.03;;;9.97;;
11921;SDS011;6021;51.182;3.160;2023-06-10T06:53:25;11.00;;;9.87;;
11921;SDS011;6021;51.182;3.160;2023-06-10T06:55:53;10.67;;;9.67;;
11921;SDS011;6021;51.182;3.160;2023-06-10T06:58:21;10.40;;;9.37;;
11921;SDS011;6021;51.182;3.160;2023-06-10T07:00:50;11.67;;;10.43;;
11921;SDS011;6021;51.182;3.160;2023-06-10T07:03:18;11.20;;;9.43;;
11921;SDS011;6021;51.182;3.160;2023-06-10T07:05:47;11.67;;;9.97;;
11921;SDS011;6021;51.182;3.160;2023-06-10T07:08:15;11.80;;;8.83;;
11921;SDS011;6021;51.182;3.160;2023-06-10T07:10:43;11.07;;;8.90;;
11921;SDS011;6021;51.182;3.160;2023-06-10T07:13:12;11.17;;;9.50;;
11921;SDS011;6021;51.182;3.160;2023-06-10T07:15:40;10.57;;;8.73;;
11921;SDS011;6021;51.182;3.160;2023-06-10T07:18:09;12.50;;;9.60;;
11921;SDS011;6021;51.182;3.160;2023-06-10T07:20:37;12.13;;;8.40;;
11921;SDS011;6021;51.182;3.160;2023-06-10T07:23:05;11.63;;;9.37;;
11921;SDS011;6021;51.182;3.160;2023-06-10T07:25:34;10.37;;;8.40;;
11921;SDS011;6021;51.182;3.160;2023-06-10T07:28:02;10.00;;;9.00;;
11921;SDS011;6021;51.182;3.160;2023-06-10T07:30:30;11.20;;;8.90;;
11921;SDS011;6021;51.182;3.160;2023-06-10T07:32:59;9.80;;;8.73;;
11921;SDS011;6021;51.182;3.160;2023-06-10T07:35:28;9.93;;;8.43;;
11921;SDS011;6021;51.182;3.160;2023-06-10T07:37:56;9.57;;;8.63;;
11921;SDS011;6021;51.182;3.160;2023-06-10T07:40:25;10.00;;;8.93;;
11921;SDS011;6021;51.182;3.160;2023-06-10T07:42:54;10.37;;;8.67;;
11921;SDS011;6021;51.182;3.160;2023-06-10T07:45:23;9.47;;;8.57;;
11921;SDS011;6021;51.182;3.160;2023-06-10T07:47:52;9.40;;;8.43;;
11921;SDS011;6021;51.182;3.160;2023-06-10T07:50:22;10.27;;;8.60;;
11921;SDS011;6021;51.182;3.160;2023-06-10T07:52:50;9.30;;;8.50;;
11921;SDS011;6021;51.182;3.160;2023-06-10T07:55:18;8.90;;;8.10;;
11921;SDS011;6021;51.182;3.160;2023-06-10T07:57:47;8.57;;;7.70;;
11921;SDS011;6021;51.182;3.160;2023-06-10T08:00:15;9.67;;;8.80;;
11921;SDS011;6021;51.182;3.160;2023-06-10T08:02:44;9.20;;;8.30;;
11921;SDS011;6021;51.182;3.160;2023-06-10T08:05:12;9.60;;;8.60;;
11921;SDS011;6021;51.182;3.160;2023-06-10T08:07:41;9.30;;;8.40;;
11921;SDS011;6021;51.182;3.160;2023-06-10T08:10:09;9.20;;;8.40;;
11921;SDS011;6021;51.182;3.160;2023-06-10T08:12:38;9.57;;;8.67;;
11921;SDS011;6021;51.182;3.160;2023-06-10T08:15:07;10.27;;;8.80;;
11921;SDS011;6021;51.182;3.160;2023-06-10T08:17:36;10.97;;;8.50;;
11921;SDS011;6021;51.182;3.160;2023-06-10T08:20:06;9.50;;;8.60;;
11921;SDS011;6021;51.182;3.160;2023-06-10T08:22:34;9.13;;;8.33;;
11921;SDS011;6021;51.182;3.160;2023-06-10T08:25:03;9.43;;;8.57;;
11921;SDS011;6021;51.182;3.160;2023-06-10T08:27:32;10.03;;;8.40;;
11921;SDS011;6021;51.182;3.160;2023-06-10T08:30:00;8.80;;;7.90;;
11921;SDS011;6021;51.182;3.160;2023-06-10T08:32:29;9.27;;;7.73;;
11921;SDS011;6021;51.182;3.160;2023-06-10T08:34:57;9.23;;;8.40;;
11921;SDS011;6021;51.182;3.160;2023-06-10T08:37:26;9.33;;;8.43;;
11921;SDS011;6021;51.182;3.160;2023-06-10T08:39:54;9.13;;;8.20;;
11921;SDS011;6021;51.182;3.160;2023-06-10T08:42:33;9.17;;;8.20;;
11921;SDS011;6021;51.182;3.160;2023-06-10T08:45:03;8.30;;;7.60;;
11921;SDS011;6021;51.182;3.160;2023-06-10T08:47:35;9.80;;;8.90;;
11921;SDS011;6021;51.182;3.160;2023-06-10T08:50:05;9.17;;;8.33;;
11921;SDS011;6021;51.182;3.160;2023-06-10T08:52:36;9.03;;;8.23;;
11921;SDS011;6021;51.182;3.160;2023-06-10T08:55:21;11.63;;;7.90;;
11921;SDS011;6021;51.182;3.160;2023-06-10T08:57:53;10.17;;;7.83;;
11921;SDS011;6021;51.182;3.160;2023-06-10T09:00:21;8.97;;;8.17;;
11921;SDS011;6021;51.182;3.160;2023-06-10T09:02:50;9.20;;;8.30;;
11921;SDS011;6021;51.182;3.160;2023-06-10T09:05:19;8.70;;;7.90;;
11921;SDS011;6021;51.182;3.160;2023-06-10T09:07:48;8.40;;;7.70;;
11921;SDS011;6021;51.182;3.160;2023-06-10T09:10:19;8.40;;;7.60;;
11921;SDS011;6021;51.182;3.160;2023-06-10T09:12:47;8.63;;;7.90;;
11921;SDS011;6021;51.182;3.160;2023-06-10T09:15:16;8.17;;;7.40;;
11921;SDS011;6021;51.182;3.160;2023-06-10T09:17:44;8.40;;;7.70;;
11921;SDS011;6021;51.182;3.160;2023-06-10T09:20:13;8.57;;;7.77;;
11921;SDS011;6021;51.182;3.160;2023-06-10T09:22:41;8.97;;;8.10;;
11921;SDS011;6021;51.182;3.160;2023-06-10T09:25:11;8.70;;;7.80;;
11921;SDS011;6021;51.182;3.160;2023-06-10T09:27:49;11.33;;;7.67;;
11921;SDS011;6021;51.182;3.160;2023-06-10T09:30:27;8.77;;;7.87;;
11921;SDS011;6021;51.182;3.160;2023-06-10T09:33:10;8.37;;;7.50;;
11921;SDS011;6021;51.182;3.160;2023-06-10T09:35:32;8.70;;;7.35;;
11921;SDS011;6021;51.182;3.160;2023-06-10T09:38:00;8.53;;;7.67;;
11921;SDS011;6021;51.182;3.160;2023-06-10T09:40:29;8.53;;;7.73;;
11921;SDS011;6021;51.182;3.160;2023-06-10T09:42:58;9.77;;;7.50;;
11921;SDS011;6021;51.182;3.160;2023-06-10T09:45:29;8.10;;;7.30;;
11921;SDS011;6021;51.182;3.160;2023-06-10T09:48:00;7.70;;;6.97;;
11921;SDS011;6021;51.182;3.160;2023-06-10T09:50:32;8.80;;;7.20;;
11921;SDS011;6021;51.182;3.160;2023-06-10T09:53:02;8.13;;;6.40;;
11921;SDS011;6021;51.182;3.160;2023-06-10T09:55:36;8.10;;;7.30;;
11921;SDS011;6021;51.182;3.160;2023-06-10T09:58:06;8.10;;;7.25;;
11921;SDS011;6021;51.182;3.160;2023-06-10T10:00:35;7.80;;;7.00;;
11921;SDS011;6021;51.182;3.160;2023-06-10T10:03:04;7.75;;;7.05;;
11921;SDS011;6021;51.182;3.160;2023-06-10T10:05:33;7.83;;;7.20;;
11921;SDS011;6021;51.182;3.160;2023-06-10T10:08:01;7.75;;;7.08;;
11921;SDS011;6021;51.182;3.160;2023-06-10T10:10:30;7.87;;;7.03;;
11921;SDS011;6021;51.182;3.160;2023-06-10T10:12:58;7.92;;;7.12;;
11921;SDS011;6021;51.182;3.160;2023-06-10T10:15:29;8.10;;;7.40;;
11921;SDS011;6021;51.182;3.160;2023-06-10T10:18:10;7.80;;;7.10;;
11921;SDS011;6021;51.182;3.160;2023-06-10T10:20:46;7.20;;;6.60;;
11921;SDS011;6021;51.182;3.160;2023-06-10T10:23:18;6.90;;;6.20;;
11921;SDS011;6021;51.182;3.160;2023-06-10T10:25:49;6.90;;;6.30;;
11921;SDS011;6021;51.182;3.160;2023-06-10T10:28:19;6.40;;;5.75;;
11921;SDS011;6021;51.182;3.160;2023-06-10T10:30:52;6.53;;;5.90;;
11921;SDS011;6021;51.182;3.160;2023-06-10T10:36:01;6.22;;;5.62;;
11921;SDS011;6021;51.182;3.160;2023-06-10T10:38:30;6.03;;;5.53;;
11921;SDS011;6021;51.182;3.160;2023-06-10T10:41:00;6.17;;;5.60;;
11921;SDS011;6021;51.182;3.160;2023-06-10T10:43:29;14.13;;;6.08;;
11921;SDS011;6021;51.182;3.160;2023-06-10T10:45:58;6.83;;;5.40;;
11921;SDS011;6021;51.182;3.160;2023-06-10T10:48:33;6.62;;;5.70;;
11921;SDS011;6021;51.182;3.160;2023-06-10T10:51:04;7.37;;;5.62;;
11921;SDS011;6021;51.182;3.160;2023-06-10T10:53:33;6.53;;;5.35;;
11921;SDS011;6021;51.182;3.160;2023-06-10T10:56:05;7.90;;;5.67;;
11921;SDS011;6021;51.182;3.160;2023-06-10T10:58:35;5.75;;;5.25;;
11921;SDS011;6021;51.182;3.160;2023-06-10T11:01:13;8.15;;;5.62;;
11921;SDS011;6021;51.182;3.160;2023-06-10T11:03:48;6.17;;;5.67;;
11921;SDS011;6021;51.182;3.160;2023-06-10T11:06:13;9.83;;;5.40;;
11921;SDS011;6021;51.182;3.160;2023-06-10T11:11:17;5.75;;;5.25;;
11921;SDS011;6021;51.182;3.160;2023-06-10T11:16:40;6.10;;;5.60;;
11921;SDS011;6021;51.182;3.160;2023-06-10T11:19:09;5.92;;;5.42;;
11921;SDS011;6021;51.182;3.160;2023-06-10T11:21:58;6.05;;;5.55;;
11921;SDS011;6021;51.182;3.160;2023-06-10T11:24:28;6.37;;;5.50;;
11921;SDS011;6021;51.182;3.160;2023-06-10T11:27:16;5.67;;;5.17;;
11921;SDS011;6021;51.182;3.160;2023-06-10T11:29:55;5.97;;;5.37;;
11921;SDS011;6021;51.182;3.160;2023-06-10T11:32:31;7.78;;;5.90;;
11921;SDS011;6021;51.182;3.160;2023-06-10T11:35:03;6.00;;;5.37;;
11921;SDS011;6021;51.182;3.160;2023-06-10T11:37:32;6.27;;;5.67;;
11921;SDS011;6021;51.182;3.160;2023-06-10T11:40:00;6.37;;;5.78;;
11921;SDS011;6021;51.182;3.160;2023-06-10T11:42:30;6.33;;;5.53;;
11921;SDS011;6021;51.182;3.160;2023-06-10T11:44:58;6.53;;;5.40;;
11921;SDS011;6021;51.182;3.160;2023-06-10T11:47:28;5.78;;;5.22;;
11921;SDS011;6021;51.182;3.160;2023-06-10T11:49:57;5.83;;;5.28;;
11921;SDS011;6021;51.182;3.160;2023-06-10T11:52:26;6.08;;;5.58;;
11921;SDS011;6021;51.182;3.160;2023-06-10T11:54:57;6.03;;;5.35;;
11921;SDS011;6021;51.182;3.160;2023-06-10T11:57:26;5.85;;;5.35;;
11921;SDS011;6021;51.182;3.160;2023-06-10T11:59:54;8.58;;;5.53;;
11921;SDS011;6021;51.182;3.160;2023-06-10T12:02:23;5.62;;;5.12;;
11921;SDS011;6021;51.182;3.160;2023-06-10T12:04:53;8.83;;;5.90;;
11921;SDS011;6021;51.182;3.160;2023-06-10T12:07:23;5.90;;;5.40;;
11921;SDS011;6021;51.182;3.160;2023-06-10T12:10:00;5.57;;;5.07;;
11921;SDS011;6021;51.182;3.160;2023-06-10T12:12:29;6.55;;;5.22;;
11921;SDS011;6021;51.182;3.160;2023-06-10T12:14:57;6.83;;;5.37;;
11921;SDS011;6021;51.182;3.160;2023-06-10T12:20:05;6.08;;;5.10;;
11921;SDS011;6021;51.182;3.160;2023-06-10T12:22:38;6.05;;;5.12;;
11921;SDS011;6021;51.182;3.160;2023-06-10T12:25:11;5.97;;;5.40;;
11921;SDS011;6021;51.182;3.160;2023-06-10T12:27:40;5.72;;;5.22;;
11921;SDS011;6021;51.182;3.160;2023-06-10T12:30:21;7.25;;;5.25;;
11921;SDS011;6021;51.182;3.160;2023-06-10T12:32:50;6.17;;;5.37;;
11921;SDS011;6021;51.182;3.160;2023-06-10T12:35:20;5.97;;;5.40;;
11921;SDS011;6021;51.182;3.160;2023-06-10T12:40:31;5.72;;;5.22;;
11921;SDS011;6021;51.182;3.160;2023-06-10T12:43:01;6.33;;;5.83;;
11921;SDS011;6021;51.182;3.160;2023-06-10T12:45:36;7.15;;;5.30;;
11921;SDS011;6021;51.182;3.160;2023-06-10T12:48:10;5.28;;;4.97;;
11921;SDS011;6021;51.182;3.160;2023-06-10T12:50:41;5.80;;;5.20;;
11921;SDS011;6021;51.182;3.160;2023-06-10T12:53:11;5.97;;;5.25;;
11921;SDS011;6021;51.182;3.160;2023-06-10T12:55:40;5.35;;;4.78;;
11921;SDS011;6021;51.182;3.160;2023-06-10T12:58:08;5.72;;;5.22;;
11921;SDS011;6021;51.182;3.160;2023-06-10T13:00:37;5.80;;;5.28;;
11921;SDS011;6021;51.182;3.160;2023-06-10T13:03:05;6.05;;;5.55;;
11921;SDS011;6021;51.182;3.160;2023-06-10T13:05:35;5.80;;;5.05;;
11921;SDS011;6021;51.182;3.160;2023-06-10T13:08:05;6.10;;;5.37;;
11921;SDS011;6021;51.182;3.160;2023-06-10T13:10:36;5.58;;;5.12;;
11921;SDS011;6021;51.182;3.160;2023-06-10T13:13:05;5.97;;;5.47;;
11921;SDS011;6021;51.182;3.160;2023-06-10T13:15:35;7.58;;;5.60;;
11921;SDS011;6021;51.182;3.160;2023-06-10T13:18:04;5.92;;;5.37;;
11921;SDS011;6021;51.182;3.160;2023-06-10T13:20:32;5.90;;;5.40;;
11921;SDS011;6021;51.182;3.160;2023-06-10T13:23:01;5.35;;;4.85;;
11921;SDS011;6021;51.182;3.160;2023-06-10T13:25:29;5.92;;;5.42;;
11921;SDS011;6021;51.182;3.160;2023-06-10T13:27:58;6.33;;;5.30;;
11921;SDS011;6021;51.182;3.160;2023-06-10T13:30:27;5.97;;;5.37;;
11921;SDS011;6021;51.182;3.160;2023-06-10T13:32:56;6.05;;;5.22;;
11921;SDS011;6021;51.182;3.160;2023-06-10T13:35:24;5.97;;;5.40;;
11921;SDS011;6021;51.182;3.160;2023-06-10T13:37:52;5.97;;;5.30;;
11921;SDS011;6021;51.182;3.160;2023-06-10T13:40:24;6.28;;;5.65;;
11921;SDS011;6021;51.182;3.160;2023-06-10T13:42:52;6.10;;;5.55;;
11921;SDS011;6021;51.182;3.160;2023-06-10T13:45:20;5.85;;;5.22;;
11921;SDS011;6021;51.182;3.160;2023-06-10T13:47:49;5.83;;;5.28;;
11921;SDS011;6021;51.182;3.160;2023-06-10T13:50:17;6.60;;;5.60;;
11921;SDS011;6021;51.182;3.160;2023-06-10T13:52:46;6.08;;;5.35;;
11921;SDS011;6021;51.182;3.160;2023-06-10T13:55:14;6.05;;;5.45;;
11921;SDS011;6021;51.182;3.160;2023-06-10T13:57:44;5.97;;;5.47;;
11921;SDS011;6021;51.182;3.160;2023-06-10T14:00:12;5.78;;;5.22;;
11921;SDS011;6021;51.182;3.160;2023-06-10T14:02:41;5.72;;;5.25;;
11921;SDS011;6021;51.182;3.160;2023-06-10T14:05:09;5.20;;;4.67;;
11921;SDS011;6021;51.182;3.160;2023-06-10T14:07:38;6.70;;;5.83;;
11921;SDS011;6021;51.182;3.160;2023-06-10T14:10:07;6.05;;;5.55;;
11921;SDS011;6021;51.182;3.160;2023-06-10T14:12:36;5.80;;;5.30;;
11921;SDS011;6021;51.182;3.160;2023-06-10T14:15:05;5.78;;;5.28;;
11921;SDS011;6021;51.182;3.160;2023-06-10T14:17:34;5.85;;;5.35;;
11921;SDS011;6021;51.182;3.160;2023-06-10T14:20:02;6.35;;;5.28;;
11921;SDS011;6021;51.182;3.160;2023-06-10T14:22:32;5.92;;;5.42;;
11921;SDS011;6021;51.182;3.160;2023-06-10T14:25:00;6.47;;;5.75;;
11921;SDS011;6021;51.182;3.160;2023-06-10T14:27:28;6.20;;;5.70;;
11921;SDS011;6021;51.182;3.160;2023-06-10T14:29:56;6.12;;;5.62;;
11921;SDS011;6021;51.182;3.160;2023-06-10T14:32:25;5.55;;;4.95;;
11921;SDS011;6021;51.182;3.160;2023-06-10T14:34:53;7.28;;;5.30;;
11921;SDS011;6021;51.182;3.160;2023-06-10T14:37:22;6.10;;;5.50;;
11921;SDS011;6021;51.182;3.160;2023-06-10T14:39:50;7.40;;;5.37;;
11921;SDS011;6021;51.182;3.160;2023-06-10T14:42:18;5.90;;;5.37;;
11921;SDS011;6021;51.182;3.160;2023-06-10T14:44:47;7.33;;;5.62;;
11921;SDS011;6021;51.182;3.160;2023-06-10T14:47:16;6.85;;;5.60;;
11921;SDS011;6021;51.182;3.160;2023-06-10T14:49:44;6.37;;;5.42;;
11921;SDS011;6021;51.182;3.160;2023-06-10T14:52:13;5.97;;;5.35;;
11921;SDS011;6021;51.182;3.160;2023-06-10T14:54:41;6.08;;;5.47;;
11921;SDS011;6021;51.182;3.160;2023-06-10T14:57:09;5.65;;;5.12;;
11921;SDS011;6021;51.182;3.160;2023-06-10T14:59:38;5.60;;;5.10;;
11921;SDS011;6021;51.182;3.160;2023-06-10T15:02:06;5.85;;;5.00;;
11921;SDS011;6021;51.182;3.160;2023-06-10T15:04:35;5.80;;;5.20;;
11921;SDS011;6021;51.182;3.160;2023-06-10T15:07:03;5.50;;;5.00;;
11921;SDS011;6021;51.182;3.160;2023-06-10T15:09:32;5.95;;;5.35;;
11921;SDS011;6021;51.182;3.160;2023-06-10T15:12:00;5.92;;;5.40;;
11921;SDS011;6021;51.182;3.160;2023-06-10T15:14:30;5.67;;;5.28;;
11921;SDS011;6021;51.182;3.160;2023-06-10T15:16:58;6.25;;;5.65;;
11921;SDS011;6021;51.182;3.160;2023-06-10T15:19:27;6.20;;;5.60;;
11921;SDS011;6021;51.182;3.160;2023-06-10T15:21:58;6.37;;;5.40;;
11921;SDS011;6021;51.182;3.160;2023-06-10T15:24:26;5.75;;;5.30;;